Time;durP1;ratioP1;P1;durP2;ratioP2;P2;SDS_P1;SDS_P2;PMS_P1;PMS_P2;Temp;Humidity;BMP_temperature;BMP_pressure;BME280_temperature;BME280_humidity;BME280_pressure;Samples;Min_cycle;Max_cycle;Signal;HPM_P1;HPM_P2
2023/01/10 00:00:58;;;;;;;6.10;3.00;;;;;;;;;;6212743;22;20151;-88
2023/01/10 00:04:03;;;;;;;5.20;2.90;;;;;;;;;;6212362;22;20167;-89
2023/01/10 00:07:09;;;;;;;4.23;2.80;;;;;;;;;;6212297;22;20307;-89
2023/01/10 00:10:14;;;;;;;7.17;2.90;;;;;;;;;;6212573;23;20175;-89
2023/01/10 00:13:22;;;;;;;5.00;2.93;;;;;;;;;;6213442;23;20211;-86
2023/01/10 00:16:28;;;;;;;4.30;2.70;;;;;;;;;;6211812;23;20151;-90
2023/01/10 00:19:33;;;;;;;4.50;2.40;;;;;;;;;;6213397;22;20147;-89
2023/01/10 00:22:38;;;;;;;5.63;2.90;;;;;;;;;;6216171;23;20155;-88
2023/01/10 00:25:43;;;;;;;6.30;2.70;;;;;;;;;;6213604;23;20310;-90
2023/01/10 00:28:50;;;;;;;5.63;3.00;;;;;;;;;;6214345;23;20191;-91
2023/01/10 00:31:56;;;;;;;10.97;4.00;;;;;;;;;;6211508;23;20215;-91
2023/01/10 00:35:04;;;;;;;5.10;2.57;;;;;;;;;;6212378;23;20697;-91
2023/01/10 00:38:09;;;;;;;5.40;2.50;;;;;;;;;;6212344;23;20170;-90
2023/01/10 00:44:34;;;;;;;8.13;2.90;;;;;;;;;;6211219;22;20513;-89
2023/01/10 00:47:39;;;;;;;6.80;2.80;;;;;;;;;;6207907;23;20190;-90
2023/01/10 00:50:45;;;;;;;7.20;2.97;;;;;;;;;;6209498;23;20152;-90
2023/01/10 00:53:50;;;;;;;5.23;2.40;;;;;;;;;;6207621;23;20194;-90
2023/01/10 00:56:55;;;;;;;4.43;2.13;;;;;;;;;;6208626;23;20178;-89
2023/01/10 01:00:11;;;;;;;5.57;2.27;;;;;;;;;;6208987;23;20514;-90
2023/01/10 01:03:16;;;;;;;5.87;2.70;;;;;;;;;;6207237;23;20222;-91
2023/01/10 01:06:21;;;;;;;6.03;2.53;;;;;;;;;;6208741;22;20163;-87
2023/01/10 01:09:26;;;;;;;5.90;2.40;;;;;;;;;;6209726;23;20171;-89
2023/01/10 01:12:30;;;;;;;2.97;1.67;;;;;;;;;;6210094;23;20179;-90
2023/01/10 01:15:37;;;;;;;5.07;1.83;;;;;;;;;;6208339;23;20291;-89
2023/01/10 01:18:42;;;;;;;7.20;2.10;;;;;;;;;;6208422;23;20226;-90
2023/01/10 01:21:47;;;;;;;4.37;2.10;;;;;;;;;;6209568;22;20166;-89
2023/01/10 01:24:52;;;;;;;5.20;1.83;;;;;;;;;;6208093;23;20179;-88
2023/01/10 01:27:57;;;;;;;7.93;1.60;;;;;;;;;;6208633;23;20210;-88
2023/01/10 01:31:09;;;;;;;6.00;1.97;;;;;;;;;;6212361;23;20171;-90
2023/01/10 01:34:14;;;;;;;4.07;1.50;;;;;;;;;;6212923;23;20174;-88
2023/01/10 01:37:44;;;;;;;4.80;1.50;;;;;;;;;;6207301;22;20801;-88
2023/01/10 01:40:50;;;;;;;4.30;1.60;;;;;;;;;;6208573;22;20170;-90
2023/01/10 01:44:05;;;;;;;6.33;1.80;;;;;;;;;;6209269;23;20211;-87
2023/01/10 01:47:18;;;;;;;8.90;2.30;;;;;;;;;;6208467;23;20162;-90
2023/01/10 01:50:27;;;;;;;4.93;1.60;;;;;;;;;;6209085;22;20501;-90
2023/01/10 01:53:34;;;;;;;9.37;2.00;;;;;;;;;;6206190;22;20187;-89
2023/01/10 01:56:41;;;;;;;5.43;2.13;;;;;;;;;;6208563;23;20160;-89
2023/01/10 01:59:48;;;;;;;8.90;1.90;;;;;;;;;;6225433;22;20494;-89
2023/01/10 02:02:57;;;;;;;4.60;2.07;;;;;;;;;;6208412;23;20171;-88
2023/01/10 02:06:02;;;;;;;4.10;2.00;;;;;;;;;;6209001;22;20159;-90
2023/01/10 02:09:13;;;;;;;3.50;1.77;;;;;;;;;;6207440;23;20168;-90
2023/01/10 02:12:20;;;;;;;3.73;1.80;;;;;;;;;;6210783;23;20155;-88
2023/01/10 02:15:25;;;;;;;4.53;1.80;;;;;;;;;;6209113;23;20198;-89
2023/01/10 02:18:31;;;;;;;2.53;1.87;;;;;;;;;;6208154;23;20662;-89
2023/01/10 02:22:06;;;;;;;3.83;1.80;;;;;;;;;;6208883;22;20170;-89
2023/01/10 02:25:22;;;;;;;6.67;1.87;;;;;;;;;;6118628;23;20194;-87
2023/01/10 02:28:46;;;;;;;2.60;1.97;;;;;;;;;;6207670;23;20207;-88
2023/01/10 02:32:10;;;;;;;6.07;2.13;;;;;;;;;;6207782;23;20171;-88
2023/01/10 02:35:30;;;;;;;4.13;2.20;;;;;;;;;;6208949;22;20213;-90
2023/01/10 02:38:48;;;;;;;3.77;1.80;;;;;;;;;;6205647;23;20291;-90
2023/01/10 02:41:57;;;;;;;3.97;1.73;;;;;;;;;;6208227;23;20256;-89
2023/01/10 02:45:04;;;;;;;3.27;2.00;;;;;;;;;;6209162;23;20179;-88
2023/01/10 02:48:10;;;;;;;3.03;1.77;;;;;;;;;;6210073;22;20246;-90
2023/01/10 02:51:19;;;;;;;2.47;1.80;;;;;;;;;;6209899;23;20175;-88
2023/01/10 02:54:26;;;;;;;4.40;1.80;;;;;;;;;;6209345;23;20303;-88
2023/01/10 02:57:40;;;;;;;4.90;1.70;;;;;;;;;;6207442;23;20219;-89
2023/01/10 03:00:46;;;;;;;5.93;2.40;;;;;;;;;;6208198;23;20159;-89
2023/01/10 03:03:57;;;;;;;3.83;1.80;;;;;;;;;;6209737;23;20175;-90
2023/01/10 03:07:07;;;;;;;3.00;1.87;;;;;;;;;;6210891;23;20170;-90
2023/01/10 03:10:15;;;;;;;5.47;2.23;;;;;;;;;;6207722;23;20748;-89
2023/01/10 03:13:22;;;;;;;2.83;1.80;;;;;;;;;;6209875;23;20174;-89
2023/01/10 03:16:28;;;;;;;4.27;2.00;;;;;;;;;;6207949;23;20198;-89
2023/01/10 03:19:36;;;;;;;4.97;1.80;;;;;;;;;;6208898;22;20223;-88
2023/01/10 03:22:42;;;;;;;5.33;1.90;;;;;;;;;;6211111;23;20167;-89
2023/01/10 03:25:48;;;;;;;6.47;1.77;;;;;;;;;;6210494;23;20211;-90
2023/01/10 03:28:57;;;;;;;4.23;1.70;;;;;;;;;;6211251;23;20298;-89
2023/01/10 03:32:06;;;;;;;5.10;1.80;;;;;;;;;;6211792;23;20151;-91
2023/01/10 03:35:13;;;;;;;5.23;1.63;;;;;;;;;;6211817;22;20198;-89
2023/01/10 03:38:28;;;;;;;6.10;1.70;;;;;;;;;;6208848;22;20167;-90
2023/01/10 03:41:35;;;;;;;4.70;2.00;;;;;;;;;;6209325;23;20226;-90
2023/01/10 03:44:45;;;;;;;5.50;2.17;;;;;;;;;;6210517;23;20165;-89
2023/01/10 03:47:52;;;;;;;2.33;1.57;;;;;;;;;;6210103;22;20156;-88
2023/01/10 03:51:00;;;;;;;8.47;2.00;;;;;;;;;;6211659;22;20167;-90
2023/01/10 03:54:05;;;;;;;4.10;1.93;;;;;;;;;;6211321;23;20507;-89
2023/01/10 03:57:15;;;;;;;7.03;1.90;;;;;;;;;;6211131;23;20234;-88
2023/01/10 04:00:21;;;;;;;5.03;2.03;;;;;;;;;;6209394;23;20163;-89
2023/01/10 04:03:26;;;;;;;4.13;1.93;;;;;;;;;;6210865;23;20240;-90
2023/01/10 04:06:33;;;;;;;2.90;2.00;;;;;;;;;;6212979;23;20171;-89
2023/01/10 04:09:38;;;;;;;4.07;1.70;;;;;;;;;;6211695;22;20166;-89
2023/01/10 04:12:43;;;;;;;3.80;1.90;;;;;;;;;;6211844;23;20187;-89
2023/01/10 04:15:49;;;;;;;3.70;1.87;;;;;;;;;;6211134;23;20194;-88
2023/01/10 04:18:55;;;;;;;4.43;2.03;;;;;;;;;;6211881;22;20182;-89
2023/01/10 04:22:01;;;;;;;3.63;2.00;;;;;;;;;;6212229;22;20167;-88
2023/01/10 04:25:06;;;;;;;4.57;2.10;;;;;;;;;;6211526;23;20170;-90
2023/01/10 04:28:12;;;;;;;3.87;1.90;;;;;;;;;;6210567;23;20163;-90
2023/01/10 04:31:17;;;;;;;4.53;2.03;;;;;;;;;;6208555;23;20155;-88
2023/01/10 04:34:22;;;;;;;3.63;1.87;;;;;;;;;;6209023;22;20150;-89
2023/01/10 04:37:28;;;;;;;6.00;2.37;;;;;;;;;;6210445;22;20223;-89
2023/01/10 04:40:33;;;;;;;4.93;2.63;;;;;;;;;;6209988;23;20303;-91
2023/01/10 04:43:38;;;;;;;4.70;2.40;;;;;;;;;;6209854;23;20622;-89
2023/01/10 04:46:44;;;;;;;5.00;2.20;;;;;;;;;;6208483;23;20168;-87
2023/01/10 04:49:49;;;;;;;3.97;2.00;;;;;;;;;;6208138;22;20171;-87
2023/01/10 04:52:55;;;;;;;4.57;2.60;;;;;;;;;;6206605;22;20614;-89
2023/01/10 04:56:03;;;;;;;4.10;2.50;;;;;;;;;;6226057;22;20214;-89
2023/01/10 04:59:10;;;;;;;4.73;2.00;;;;;;;;;;6207585;23;20167;-89
2023/01/10 05:02:14;;;;;;;3.63;2.37;;;;;;;;;;6207159;23;20214;-91
2023/01/10 05:05:20;;;;;;;2.43;2.10;;;;;;;;;;6207722;22;20275;-88
2023/01/10 05:08:26;;;;;;;7.77;2.20;;;;;;;;;;6207954;22;20206;-90
2023/01/10 05:11:31;;;;;;;3.50;2.17;;;;;;;;;;6208891;23;20229;-89
2023/01/10 05:14:36;;;;;;;3.47;1.80;;;;;;;;;;6208168;23;20207;-90
2023/01/10 05:17:42;;;;;;;3.53;2.10;;;;;;;;;;6207812;23;20195;-89
2023/01/10 05:20:47;;;;;;;3.20;1.53;;;;;;;;;;6208997;22;20504;-88
2023/01/10 05:23:53;;;;;;;2.57;1.73;;;;;;;;;;6209477;23;20171;-90
2023/01/10 05:26:58;;;;;;;2.73;1.67;;;;;;;;;;6208993;22;20500;-90
2023/01/10 05:30:03;;;;;;;2.10;1.60;;;;;;;;;;6210378;23;20495;-89
2023/01/10 05:33:08;;;;;;;3.27;1.43;;;;;;;;;;6209875;23;20486;-90
2023/01/10 05:36:13;;;;;;;3.43;1.70;;;;;;;;;;6209918;23;20174;-89
2023/01/10 05:39:20;;;;;;;2.40;1.60;;;;;;;;;;6210540;23;20155;-88
2023/01/10 05:42:25;;;;;;;5.77;1.40;;;;;;;;;;6210176;22;20253;-89
2023/01/10 05:45:30;;;;;;;2.63;1.60;;;;;;;;;;6209931;23;20174;-89
2023/01/10 05:48:35;;;;;;;7.93;1.80;;;;;;;;;;6209097;23;20171;-87
2023/01/10 05:51:41;;;;;;;2.17;1.40;;;;;;;;;;6207592;22;20174;-88
2023/01/10 05:54:47;;;;;;;3.43;1.77;;;;;;;;;;6210575;23;20162;-88
2023/01/10 05:57:52;;;;;;;2.20;1.43;;;;;;;;;;6209369;23;20279;-88
2023/01/10 06:00:58;;;;;;;2.47;1.60;;;;;;;;;;6209426;23;20167;-89
2023/01/10 06:04:04;;;;;;;3.50;1.83;;;;;;;;;;6209067;23;20163;-86
2023/01/10 06:07:09;;;;;;;3.13;1.97;;;;;;;;;;6210927;23;20175;-87
2023/01/10 06:10:15;;;;;;;2.60;1.80;;;;;;;;;;6209840;22;20626;-86
2023/01/10 06:13:20;;;;;;;2.50;1.70;;;;;;;;;;6217414;22;20211;-87
2023/01/10 06:16:25;;;;;;;3.77;2.20;;;;;;;;;;6214323;22;20218;-86
2023/01/10 06:19:31;;;;;;;8.30;2.43;;;;;;;;;;6215164;23;20224;-87
2023/01/10 06:22:36;;;;;;;5.87;3.10;;;;;;;;;;6212081;23;20223;-88
2023/01/10 06:25:43;;;;;;;5.07;3.13;;;;;;;;;;6228047;23;20167;-88
2023/01/10 06:28:48;;;;;;;6.60;2.43;;;;;;;;;;6212358;22;20155;-90
2023/01/10 06:31:54;;;;;;;3.33;2.40;;;;;;;;;;6212823;22;20168;-89
2023/01/10 06:34:59;;;;;;;5.57;2.90;;;;;;;;;;6213210;23;20163;-90
2023/01/10 06:41:25;;;;;;;3.27;2.60;;;;;;;;;;6213725;22;20167;-88
2023/01/10 06:44:31;;;;;;;7.40;2.40;;;;;;;;;;6214027;22;20637;-88
2023/01/10 06:47:36;;;;;;;3.20;2.47;;;;;;;;;;6213284;22;20167;-88
2023/01/10 06:50:42;;;;;;;7.97;3.33;;;;;;;;;;6213711;23;20496;-87
2023/01/10 06:53:47;;;;;;;9.73;4.03;;;;;;;;;;6229956;23;20191;-89
2023/01/10 06:56:54;;;;;;;7.73;3.53;;;;;;;;;;6213102;23;20191;-87
2023/01/10 06:59:59;;;;;;;6.17;3.50;;;;;;;;;;6215989;22;20199;-89
2023/01/10 07:03:05;;;;;;;10.03;3.73;;;;;;;;;;6212993;22;20259;-91
2023/01/10 07:06:12;;;;;;;3.97;2.90;;;;;;;;;;6214856;23;20215;-89
2023/01/10 07:09:18;;;;;;;13.63;5.73;;;;;;;;;;6215003;22;20171;-90
2023/01/10 07:12:25;;;;;;;11.40;3.90;;;;;;;;;;6211007;22;20171;-90
2023/01/10 07:15:30;;;;;;;6.80;3.20;;;;;;;;;;6213507;22;20170;-88
2023/01/10 07:18:36;;;;;;;8.23;3.27;;;;;;;;;;6213062;22;20198;-90
2023/01/10 07:21:41;;;;;;;5.63;3.33;;;;;;;;;;6213757;23;20626;-87
2023/01/10 07:24:46;;;;;;;7.27;3.70;;;;;;;;;;6212443;23;20249;-87
2023/01/10 07:27:54;;;;;;;11.17;4.50;;;;;;;;;;6212029;23;20178;-89
2023/01/10 07:31:00;;;;;;;53.50;18.20;;;;;;;;;;6212027;22;20171;-88
2023/01/10 07:34:05;;;;;;;11.77;5.37;;;;;;;;;;6211985;22;20282;-90
2023/01/10 07:37:10;;;;;;;8.13;4.47;;;;;;;;;;6212244;23;20251;-91
2023/01/10 07:40:15;;;;;;;7.27;4.17;;;;;;;;;;6211550;23;20634;-88
2023/01/10 07:43:22;;;;;;;12.00;4.67;;;;;;;;;;6211311;23;20286;-88
2023/01/10 07:46:27;;;;;;;8.23;4.10;;;;;;;;;;6210933;23;20167;-88
2023/01/10 07:49:32;;;;;;;10.40;4.60;;;;;;;;;;6211279;22;20179;-89
2023/01/10 07:52:42;;;;;;;6.73;4.03;;;;;;;;;;6213950;23;20207;-88
2023/01/10 07:55:47;;;;;;;9.50;4.43;;;;;;;;;;6212413;23;20191;-87
2023/01/10 07:58:54;;;;;;;13.63;5.57;;;;;;;;;;6211696;23;20167;-87
2023/01/10 08:01:59;;;;;;;7.43;4.50;;;;;;;;;;6212257;23;20171;-88
2023/01/10 08:05:04;;;;;;;8.67;4.47;;;;;;;;;;6212395;22;20204;-87
2023/01/10 08:08:11;;;;;;;7.80;3.97;;;;;;;;;;6211268;23;20218;-90
2023/01/10 08:11:16;;;;;;;9.93;4.30;;;;;;;;;;6213142;23;20183;-87
2023/01/10 08:14:22;;;;;;;6.37;4.00;;;;;;;;;;6216435;23;20167;-90
2023/01/10 08:17:28;;;;;;;7.03;4.10;;;;;;;;;;6212647;23;20214;-91
2023/01/10 08:20:33;;;;;;;6.67;4.00;;;;;;;;;;6212970;22;20167;-90
2023/01/10 08:23:38;;;;;;;7.90;3.70;;;;;;;;;;6214043;22;20187;-89
2023/01/10 08:26:44;;;;;;;6.50;4.10;;;;;;;;;;6213343;22;20214;-88
2023/01/10 08:29:50;;;;;;;8.37;4.57;;;;;;;;;;6214795;23;20171;-88
2023/01/10 08:32:55;;;;;;;8.40;4.53;;;;;;;;;;6213222;23;20175;-88
2023/01/10 08:36:00;;;;;;;17.70;6.50;;;;;;;;;;6213120;22;20199;-90
2023/01/10 08:39:05;;;;;;;12.37;5.17;;;;;;;;;;6212790;23;20216;-89
2023/01/10 08:42:10;;;;;;;7.33;4.47;;;;;;;;;;6211844;23;20180;-87
2023/01/10 08:45:17;;;;;;;7.60;3.70;;;;;;;;;;6212209;23;20187;-87
2023/01/10 08:48:22;;;;;;;8.57;4.40;;;;;;;;;;6212561;23;20230;-88
2023/01/10 08:51:27;;;;;;;8.00;4.20;;;;;;;;;;6211524;23;20190;-89
2023/01/10 08:54:34;;;;;;;7.70;4.40;;;;;;;;;;6213940;22;20179;-89
2023/01/10 08:57:39;;;;;;;8.93;4.60;;;;;;;;;;6229186;23;20242;-87
2023/01/10 09:00:46;;;;;;;9.63;4.90;;;;;;;;;;6211617;23;20235;-85
2023/01/10 09:03:51;;;;;;;10.27;5.67;;;;;;;;;;6211071;23;20167;-88
2023/01/10 09:06:56;;;;;;;11.47;5.33;;;;;;;;;;6208855;23;20529;-88
2023/01/10 09:10:02;;;;;;;7.87;4.47;;;;;;;;;;6210679;22;20174;-89
2023/01/10 09:13:08;;;;;;;10.73;4.77;;;;;;;;;;6210274;23;20171;-88
2023/01/10 09:16:15;;;;;;;12.20;5.33;;;;;;;;;;6211394;22;20297;-89
2023/01/10 09:19:20;;;;;;;8.13;4.27;;;;;;;;;;6210606;23;20178;-88
2023/01/10 09:22:26;;;;;;;8.93;4.47;;;;;;;;;;6209351;23;20210;-90
2023/01/10 09:25:31;;;;;;;7.53;4.07;;;;;;;;;;6211635;22;20171;-90
2023/01/10 09:28:36;;;;;;;9.33;4.97;;;;;;;;;;6210390;22;20166;-87
2023/01/10 09:31:42;;;;;;;13.53;6.13;;;;;;;;;;6212441;23;20618;-92
2023/01/10 09:34:47;;;;;;;10.53;4.97;;;;;;;;;;6211594;23;20201;-88
2023/01/10 09:37:54;;;;;;;6.17;3.10;;;;;;;;;;6211636;23;20302;-92
2023/01/10 09:41:08;;;;;;;6.13;2.90;;;;;;;;;;6210439;22;20166;-88
2023/01/10 09:44:17;;;;;;;4.60;2.70;;;;;;;;;;6212124;22;20187;-89
2023/01/10 09:47:26;;;;;;;7.57;3.67;;;;;;;;;;6212472;23;20171;-88
2023/01/10 09:50:37;;;;;;;4.47;3.00;;;;;;;;;;6211694;23;20230;-89
2023/01/10 09:53:44;;;;;;;4.63;3.13;;;;;;;;;;6211420;23;20167;-88
2023/01/10 09:56:49;;;;;;;7.53;3.23;;;;;;;;;;6210091;23;20378;-92
2023/01/10 09:59:55;;;;;;;5.07;3.30;;;;;;;;;;6214488;22;20166;-88
2023/01/10 10:03:01;;;;;;;4.90;3.13;;;;;;;;;;6216750;23;20210;-89
2023/01/10 10:06:07;;;;;;;6.47;3.40;;;;;;;;;;6212183;23;20241;-89
2023/01/10 10:09:15;;;;;;;7.43;3.30;;;;;;;;;;6213294;23;20210;-90
2023/01/10 10:12:27;;;;;;;7.93;3.73;;;;;;;;;;6212111;22;20224;-90
2023/01/10 10:15:36;;;;;;;7.77;3.10;;;;;;;;;;6212793;22;20180;-89
2023/01/10 10:18:46;;;;;;;5.77;3.40;;;;;;;;;;6212724;23;20637;-90
2023/01/10 10:21:55;;;;;;;6.25;3.22;;;;;;;;;;6213883;23;20171;-90
2023/01/10 10:25:06;;;;;;;8.40;3.60;;;;;;;;;;6210329;23;20171;-89
2023/01/10 10:28:25;;;;;;;10.77;4.67;;;;;;;;;;6212624;23;20220;-89
2023/01/10 10:31:39;;;;;;;8.60;3.93;;;;;;;;;;6213001;23;20186;-89
2023/01/10 10:34:47;;;;;;;9.77;3.70;;;;;;;;;;6213031;23;20167;-89
2023/01/10 10:37:54;;;;;;;11.27;4.37;;;;;;;;;;6213215;23;20190;-90
2023/01/10 10:41:00;;;;;;;5.63;3.57;;;;;;;;;;6210856;23;20159;-88
2023/01/10 10:44:09;;;;;;;9.35;4.43;;;;;;;;;;6210617;23;20175;-88
2023/01/10 10:47:15;;;;;;;9.45;4.72;;;;;;;;;;6210825;23;20195;-91
2023/01/10 10:50:29;;;;;;;13.00;5.13;;;;;;;;;;6210456;23;20166;-91
2023/01/10 10:53:35;;;;;;;12.38;4.82;;;;;;;;;;6208080;23;20283;-89
2023/01/10 10:56:39;;;;;;;12.00;6.13;;;;;;;;;;6209775;22;20276;-88
2023/01/10 10:59:47;;;;;;;10.83;5.53;;;;;;;;;;6208614;22;20170;-88
2023/01/10 11:02:54;;;;;;;14.77;5.43;;;;;;;;;;6210165;23;20172;-89
2023/01/10 11:06:00;;;;;;;14.00;5.63;;;;;;;;;;6211437;23;20223;-91
2023/01/10 11:09:06;;;;;;;13.13;4.88;;;;;;;;;;6209929;23;20507;-87
2023/01/10 11:12:14;;;;;;;13.40;4.80;;;;;;;;;;6210956;23;20199;-89
2023/01/10 11:15:39;;;;;;;10.50;4.65;;;;;;;;;;6209524;23;20242;-89
2023/01/10 11:18:44;;;;;;;9.77;4.57;;;;;;;;;;6208550;23;20622;-88
2023/01/10 11:21:53;;;;;;;8.27;4.60;;;;;;;;;;6211973;23;20589;-89
2023/01/10 11:25:01;;;;;;;8.50;4.35;;;;;;;;;;6213490;23;20208;-90
2023/01/10 11:28:06;;;;;;;9.23;4.20;;;;;;;;;;6209905;22;20237;-88
2023/01/10 11:31:11;;;;;;;11.02;4.32;;;;;;;;;;6229350;22;20291;-89
2023/01/10 11:34:22;;;;;;;12.43;4.50;;;;;;;;;;6211566;23;20171;-88
2023/01/10 11:37:31;;;;;;;7.43;4.50;;;;;;;;;;6212377;23;20195;-89
2023/01/10 11:40:38;;;;;;;9.32;4.63;;;;;;;;;;6210828;23;20167;-89
2023/01/10 11:43:43;;;;;;;10.35;4.13;;;;;;;;;;6208298;23;20170;-89
2023/01/10 11:46:49;;;;;;;7.78;3.90;;;;;;;;;;6209422;23;20170;-88
2023/01/10 11:49:54;;;;;;;7.10;3.78;;;;;;;;;;6210399;23;20254;-87
2023/01/10 11:53:01;;;;;;;4.85;3.25;;;;;;;;;;6211800;23;20626;-89
2023/01/10 11:56:07;;;;;;;5.88;2.80;;;;;;;;;;6210096;23;20166;-88
2023/01/10 11:59:14;;;;;;;7.25;3.28;;;;;;;;;;6211508;22;20524;-88
2023/01/10 12:02:23;;;;;;;7.80;3.00;;;;;;;;;;6208788;23;20167;-87
2023/01/10 12:05:29;;;;;;;6.72;3.08;;;;;;;;;;6212520;23;20210;-88
2023/01/10 12:08:43;;;;;;;9.30;3.00;;;;;;;;;;6210738;23;20187;-88
2023/01/10 12:11:50;;;;;;;6.30;2.47;;;;;;;;;;6210764;23;20183;-89
2023/01/10 12:14:55;;;;;;;4.95;2.38;;;;;;;;;;6210877;23;20210;-90
2023/01/10 12:18:03;;;;;;;9.35;2.83;;;;;;;;;;6210719;23;20270;-87
2023/01/10 12:21:09;;;;;;;4.75;2.63;;;;;;;;;;6210323;23;20171;-89
2023/01/10 12:24:17;;;;;;;4.13;2.05;;;;;;;;;;6209814;23;20179;-90
2023/01/10 12:27:24;;;;;;;3.63;1.60;;;;;;;;;;6208907;23;20190;-88
2023/01/10 12:30:32;;;;;;;7.90;1.92;;;;;;;;;;6210688;22;20618;-88
2023/01/10 12:33:40;;;;;;;5.30;2.00;;;;;;;;;;6209157;23;20255;-91
2023/01/10 12:36:50;;;;;;;9.60;2.27;;;;;;;;;;6210502;23;20162;-90
2023/01/10 12:40:00;;;;;;;5.28;1.77;;;;;;;;;;6211144;23;20220;-88
2023/01/10 12:46:33;;;;;;;4.87;1.67;;;;;;;;;;6210603;23;20186;-87
2023/01/10 12:49:43;;;;;;;12.27;2.67;;;;;;;;;;6209313;23;20171;-90
2023/01/10 12:52:51;;;;;;;5.37;2.30;;;;;;;;;;6194361;23;20155;-89
2023/01/10 12:55:59;;;;;;;7.70;2.47;;;;;;;;;;6209442;22;20561;-88
2023/01/10 12:59:06;;;;;;;4.80;1.67;;;;;;;;;;6212698;23;20176;-88
2023/01/10 13:02:15;;;;;;;5.93;2.20;;;;;;;;;;6209820;23;20230;-87
2023/01/10 13:05:22;;;;;;;11.63;2.77;;;;;;;;;;6210615;23;20167;-89
2023/01/10 13:08:28;;;;;;;3.57;1.80;;;;;;;;;;6231316;22;20186;-90
2023/01/10 13:11:38;;;;;;;9.03;2.87;;;;;;;;;;6211536;22;20182;-88
2023/01/10 13:14:46;;;;;;;15.57;4.40;;;;;;;;;;6216013;22;20235;-87
2023/01/10 13:17:54;;;;;;;5.33;2.03;;;;;;;;;;6215577;23;20202;-87
2023/01/10 13:21:07;;;;;;;9.20;2.70;;;;;;;;;;6215100;23;20167;-86
2023/01/10 13:24:21;;;;;;;4.90;1.70;;;;;;;;;;6214360;23;20179;-88
2023/01/10 13:27:30;;;;;;;5.43;1.60;;;;;;;;;;6214713;23;20159;-85
2023/01/10 13:30:36;;;;;;;9.53;2.97;;;;;;;;;;6212139;23;20171;-87
2023/01/10 13:33:51;;;;;;;6.83;2.40;;;;;;;;;;6213032;23;20167;-88
2023/01/10 13:36:58;;;;;;;7.03;2.40;;;;;;;;;;6214696;23;20242;-87
2023/01/10 13:40:04;;;;;;;6.67;2.50;;;;;;;;;;6212592;23;20234;-89
2023/01/10 13:43:35;;;;;;;6.37;2.53;;;;;;;;;;6215441;23;20174;-89
2023/01/10 13:46:48;;;;;;;7.10;3.03;;;;;;;;;;6214499;23;20170;-88
2023/01/10 13:49:55;;;;;;;7.77;2.80;;;;;;;;;;6212763;23;20183;-89
2023/01/10 13:53:16;;;;;;;9.80;3.13;;;;;;;;;;6194281;23;20174;-90
2023/01/10 13:56:34;;;;;;;10.57;2.87;;;;;;;;;;6212485;23;20167;-87
2023/01/10 14:03:42;;;;;;;9.17;2.87;;;;;;;;;;6213444;23;20491;-88
2023/01/10 14:06:56;;;;;;;12.80;2.90;;;;;;;;;;6213414;22;20214;-89
2023/01/10 14:10:03;;;;;;;7.87;2.50;;;;;;;;;;6213731;23;20179;-89
2023/01/10 14:13:17;;;;;;;9.10;2.93;;;;;;;;;;6214419;22;20232;-88
2023/01/10 14:16:34;;;;;;;11.10;2.80;;;;;;;;;;6214121;23;20239;-91
2023/01/10 14:19:43;;;;;;;4.65;2.78;;;;;;;;;;6185397;23;20183;-89
2023/01/10 14:22:59;;;;;;;13.63;3.43;;;;;;;;;;6180968;23;20203;-87
2023/01/10 14:26:05;;;;;;;9.73;2.97;;;;;;;;;;6179169;23;20175;-87
2023/01/10 14:29:12;;;;;;;9.73;3.77;;;;;;;;;;6180677;23;20232;-88
2023/01/10 14:32:21;;;;;;;9.90;2.93;;;;;;;;;;6180894;23;20168;-89
2023/01/10 14:35:30;;;;;;;8.73;3.20;;;;;;;;;;6182057;23;20172;-90
2023/01/10 14:38:39;;;;;;;9.23;2.80;;;;;;;;;;6179517;23;20195;-89
2023/01/10 14:41:45;;;;;;;5.33;2.30;;;;;;;;;;6181361;23;20232;-88
2023/01/10 14:44:57;;;;;;;6.27;2.67;;;;;;;;;;6179944;23;20295;-88
2023/01/10 14:48:18;;;;;;;9.60;2.87;;;;;;;;;;6179613;23;20165;-89
2023/01/10 14:51:26;;;;;;;7.67;2.50;;;;;;;;;;6200420;23;20229;-88
2023/01/10 14:54:31;;;;;;;13.30;2.73;;;;;;;;;;6178830;23;20172;-88
2023/01/10 14:57:36;;;;;;;9.80;2.60;;;;;;;;;;6176190;23;20196;-89
2023/01/10 15:00:44;;;;;;;8.53;2.67;;;;;;;;;;6186758;23;20565;-88
2023/01/10 15:03:50;;;;;;;12.53;2.77;;;;;;;;;;6178563;23;20222;-88
2023/01/10 15:06:58;;;;;;;8.13;2.47;;;;;;;;;;6181053;23;20498;-90
2023/01/10 15:10:11;;;;;;;15.27;2.60;;;;;;;;;;6178413;23;20608;-89
2023/01/10 15:13:18;;;;;;;12.43;3.23;;;;;;;;;;6179172;23;20171;-87
2023/01/10 15:16:23;;;;;;;14.10;3.57;;;;;;;;;;6177144;23;20167;-88
2023/01/10 15:19:33;;;;;;;10.30;2.80;;;;;;;;;;6177633;23;20266;-88
2023/01/10 15:22:40;;;;;;;12.13;3.63;;;;;;;;;;6180118;23;20176;-87
2023/01/10 15:25:46;;;;;;;8.45;2.67;;;;;;;;;;6177795;23;20168;-89
2023/01/10 15:29:03;;;;;;;16.20;2.80;;;;;;;;;;6177222;23;20506;-88
2023/01/10 15:32:10;;;;;;;9.50;3.03;;;;;;;;;;6178208;23;20237;-89
2023/01/10 15:35:15;;;;;;;7.03;2.50;;;;;;;;;;6182889;23;20172;-88
2023/01/10 15:38:33;;;;;;;6.50;2.70;;;;;;;;;;6186263;23;20266;-88
2023/01/10 15:41:38;;;;;;;11.97;2.60;;;;;;;;;;6180178;23;20418;-91
2023/01/10 15:44:44;;;;;;;11.80;3.30;;;;;;;;;;6179223;23;20171;-88
2023/01/10 15:48:01;;;;;;;7.70;2.67;;;;;;;;;;6178855;23;20155;-87
2023/01/10 15:51:13;;;;;;;9.80;3.03;;;;;;;;;;6179695;23;20176;-89
2023/01/10 15:54:31;;;;;;;9.83;3.13;;;;;;;;;;6180615;23;20175;-88
2023/01/10 15:57:38;;;;;;;12.37;3.13;;;;;;;;;;6183223;23;20188;-87
2023/01/10 16:00:44;;;;;;;12.80;2.87;;;;;;;;;;6180339;23;20160;-88
2023/01/10 16:03:52;;;;;;;9.57;2.93;;;;;;;;;;6180088;23;20257;-88
2023/01/10 16:07:06;;;;;;;33.77;7.60;;;;;;;;;;6180032;23;20168;-88
2023/01/10 16:10:19;;;;;;;19.23;5.93;;;;;;;;;;6180133;23;20278;-91
2023/01/10 16:13:27;;;;;;;13.67;4.53;;;;;;;;;;6179996;23;20460;-89
2023/01/10 16:16:33;;;;;;;14.17;3.00;;;;;;;;;;6178837;23;20661;-88
2023/01/10 16:19:38;;;;;;;15.37;4.10;;;;;;;;;;6179221;23;20200;-89
2023/01/10 16:22:44;;;;;;;13.17;4.40;;;;;;;;;;6179638;23;20189;-88
2023/01/10 16:25:52;;;;;;;12.20;3.70;;;;;;;;;;6179504;23;20180;-90
2023/01/10 16:28:57;;;;;;;14.20;3.63;;;;;;;;;;6177283;23;20168;-88
2023/01/10 16:32:02;;;;;;;11.33;4.33;;;;;;;;;;6181395;23;20203;-89
2023/01/10 16:35:10;;;;;;;12.67;3.83;;;;;;;;;;6181940;23;20500;-89
2023/01/10 16:38:50;;;;;;;16.17;4.07;;;;;;;;;;6178167;23;20199;-87
2023/01/10 16:45:20;;;;;;;12.83;4.10;;;;;;;;;;6177680;23;20192;-88
2023/01/10 16:48:25;;;;;;;11.63;3.20;;;;;;;;;;6178800;23;20242;-90
2023/01/10 16:51:32;;;;;;;13.10;4.07;;;;;;;;;;6179209;23;20176;-85
2023/01/10 16:54:37;;;;;;;10.55;3.55;;;;;;;;;;6179169;23;20163;-90
2023/01/10 16:57:47;;;;;;;11.13;3.17;;;;;;;;;;6178314;23;20168;-88
2023/01/10 17:00:52;;;;;;;9.17;3.13;;;;;;;;;;6179381;23;20258;-88
2023/01/10 17:03:58;;;;;;;10.73;3.17;;;;;;;;;;6181739;23;20227;-88
2023/01/10 17:07:03;;;;;;;5.88;2.28;;;;;;;;;;6178789;23;20323;-89
2023/01/10 17:10:09;;;;;;;10.30;3.10;;;;;;;;;;6179129;23;20235;-89
2023/01/10 17:13:18;;;;;;;16.17;3.27;;;;;;;;;;6177825;23;20171;-88
2023/01/10 17:16:23;;;;;;;8.37;2.57;;;;;;;;;;6178624;23;20244;-88
2023/01/10 17:19:28;;;;;;;13.80;3.23;;;;;;;;;;6180626;23;20514;-87
2023/01/10 17:22:36;;;;;;;7.23;2.77;;;;;;;;;;6181836;23;20239;-88
2023/01/10 17:25:41;;;;;;;11.23;2.77;;;;;;;;;;6181652;23;20195;-88
2023/01/10 17:28:49;;;;;;;12.17;3.60;;;;;;;;;;6178504;23;20179;-89
2023/01/10 17:31:54;;;;;;;12.80;4.10;;;;;;;;;;6182049;23;20176;-89
2023/01/10 17:35:00;;;;;;;13.10;3.80;;;;;;;;;;6179188;23;20219;-88
2023/01/10 17:38:06;;;;;;;14.70;4.27;;;;;;;;;;6180542;23;20172;-90
2023/01/10 17:41:11;;;;;;;17.43;4.17;;;;;;;;;;6180302;23;20191;-88
2023/01/10 17:44:18;;;;;;;14.50;4.30;;;;;;;;;;6178805;23;20163;-88
2023/01/10 17:47:24;;;;;;;15.57;5.33;;;;;;;;;;6178903;23;20219;-90
2023/01/10 17:50:30;;;;;;;12.87;3.63;;;;;;;;;;6180213;23;20236;-89
2023/01/10 17:53:35;;;;;;;9.40;3.00;;;;;;;;;;6179964;23;20173;-88
2023/01/10 17:56:41;;;;;;;11.20;4.03;;;;;;;;;;6183004;23;20179;-88
2023/01/10 17:59:47;;;;;;;25.30;8.40;;;;;;;;;;6182404;23;20191;-86
2023/01/10 18:02:53;;;;;;;10.47;3.10;;;;;;;;;;6185341;23;20171;-90
2023/01/10 18:06:01;;;;;;;15.10;4.33;;;;;;;;;;6187064;23;20195;-87
2023/01/10 18:09:06;;;;;;;19.73;6.00;;;;;;;;;;6185707;23;20180;-88
2023/01/10 18:12:12;;;;;;;10.57;4.23;;;;;;;;;;6186097;23;20187;-91
2023/01/10 18:15:19;;;;;;;12.97;4.87;;;;;;;;;;6185077;23;20172;-89
2023/01/10 18:18:26;;;;;;;19.23;7.27;;;;;;;;;;6204501;22;20207;-89
2023/01/10 18:21:32;;;;;;;28.33;7.93;;;;;;;;;;6215285;22;20171;-88
2023/01/10 18:24:38;;;;;;;22.23;7.53;;;;;;;;;;6215821;23;20179;-88
2023/01/10 18:27:48;;;;;;;26.97;10.73;;;;;;;;;;6216052;23;20166;-88
2023/01/10 18:30:55;;;;;;;24.23;8.80;;;;;;;;;;6214128;22;20171;-89
2023/01/10 18:34:00;;;;;;;20.97;6.27;;;;;;;;;;6213511;23;20168;-89
2023/01/10 18:37:05;;;;;;;17.80;4.43;;;;;;;;;;6213370;22;20167;-89
2023/01/10 18:40:11;;;;;;;20.53;6.03;;;;;;;;;;6214212;23;20199;-87
2023/01/10 18:43:16;;;;;;;19.27;6.07;;;;;;;;;;6232425;22;20245;-87
2023/01/10 18:46:23;;;;;;;22.10;6.93;;;;;;;;;;6215302;23;20594;-87
2023/01/10 18:49:28;;;;;;;22.00;6.60;;;;;;;;;;6213475;23;20186;-88
2023/01/10 18:52:33;;;;;;;11.93;4.50;;;;;;;;;;6216272;22;20257;-91
2023/01/10 18:55:39;;;;;;;19.03;4.93;;;;;;;;;;6215906;22;20163;-88